ADDS METAR Data INFO
IDs: Format: Raw Decoded Include TAF

Data at: 2054 UTC 24 Jun 2017

KASL 242035Z AUTO 05004KT 10SM 28/22 A3009 RMK AO1 T02800221
KASL 242015Z AUTO 06005KT 10SM 26/20 A3009 RMK AO1 T02600204
KASL 241955Z AUTO 02006KT 10SM 26/21 A3010 RMK AO1 T02570206
KASL 241935Z AUTO 04003KT 10SM 26/21 A3011 RMK AO1 T02550205
KASL 241915Z AUTO 01007KT 10SM 26/21 A3012 RMK AO1 T02580208
KASL 241855Z AUTO 03007KT 10SM SCT018 SCT024 SCT048 26/21 A3012 RMK AO1 T02580209
KASL 241835Z AUTO 02007KT 10SM SCT018 SCT045 25/21 A3012 RMK AO1 T02520210
KASL 241815Z AUTO 01005KT 10SM SCT045 25/21 A3012 RMK AO1 T02490211
KASL 241755Z AUTO 02004KT 10SM SCT012 OVC047 25/21 A3012 RMK AO1 60001 T02460209 10246 20211
KASL 241735Z AUTO 01005KT 10SM SCT014 BKN047 24/21 A3013 RMK AO1 T02400208
KASL 241715Z AUTO 35007KT 10SM SCT014 24/21 A3013 RMK AO1 T02400207
KASL 241655Z AUTO 35009KT 10SM SCT008 BKN014 BKN085 24/22 A3014 RMK AO1 T02400215
KASL 241635Z AUTO 36005KT 10SM SCT009 SCT036 BKN080 23/21 A3014 RMK AO1 T02320212
KASL 241615Z AUTO 00000KT 10SM 23/21 A3014 RMK AO1 T02250208
KASL 241555Z AUTO 35004KT 10SM 23/21 A3014 RMK AO1 T02250208
KASL 241535Z AUTO 02003KT 10SM 23/21 A3013 RMK AO1 T02250208
KASL 241515Z AUTO 36007KT 10SM 23/21 A3012 RMK AO1 T02250210
KASL 241455Z AUTO 36003KT 10SM SCT007 SCT016 OVC037 23/21 A3012 RMK AO1 60001 T02250211
KASL 241435Z AUTO 33005KT 10SM BKN005 OVC015 23/21 A3013 RMK AO1 T02250212
KASL 241415Z AUTO 00000KT 7SM OVC005 22/21 A3012 RMK AO1 T02220211
KASL 241355Z AUTO 00000KT 7SM OVC003 22/20 A3011 RMK AO1 T02160204
KASL 241335Z AUTO 05003KT 7SM OVC003 21/20 A3010 RMK AO1 T02110200
KASL 241315Z AUTO 36004KT 7SM OVC003 22/21 A3009 RMK AO1 T02170205
KASL 241255Z AUTO 35004KT 7SM OVC003 21/20 A3007 RMK AO1 P0001 T02110200
KASL 241235Z AUTO 35005KT 5SM OVC003 21/20 A3005 RMK AO1 T02110200
KASL 241215Z AUTO 00000KT 7SM 21/20 A3005 RMK AO1 T02110200
KASL 241155Z AUTO 01005KT 7SM 21/20 A3004 RMK AO1 60023 70121 T02110200 10211 20211
KASL 241135Z AUTO 05003KT 7SM 21/20 A3002 RMK AO1 T02110200
KASL 241115Z AUTO 31006KT 10SM 21/20 A3003 RMK AO1 T02110200
KASL 241055Z AUTO 31006KT 7SM CLR 21/20 A3002 RMK AO1 P0002 T02110200
KASL 241035Z AUTO 00000KT 5SM CLR 21/20 A3003 RMK AO1 P0001 T02110200
KASL 241015Z AUTO 00000KT 5SM CLR 21/20 A3003 RMK AO1 P0001 T02110200
KASL 240955Z AUTO 00000KT 7SM CLR 21/20 A3003 RMK AO1 T02110200
KASL 240935Z AUTO 00000KT 10SM SCT016 21/20 A3003 RMK AO1 T02110200
KASL 240915Z AUTO 33006KT 7SM BKN016 21/20 A3004 RMK AO1 T02110200
KASL 240855Z AUTO 00000KT 7SM CLR 21/20 A3002 RMK AO1 P0004 60021 T02110198
KASL 240835Z AUTO 00000KT 7SM SCT044 SCT060 SCT080 21/20 A3001 RMK AO1 P0003 T02110198
KASL 240815Z AUTO 00000KT 7SM SCT033 BKN050 OVC100 21/20 A3001 RMK AO1 P0001 T02110196
KASL 240755Z AUTO 36006KT 10SM SCT090 SCT120 21/20 A3002 RMK AO1 P0001 T02110195
KASL 240735Z AUTO 00000KT 10SM CLR 21/19 A2995 RMK AO1 P0001 T02110192
KASL 240715Z AUTO 22006KT 10SM SCT065 SCT090 SCT110 21/19 A2993 RMK AO1 P0001 T02110192
KASL 240655Z AUTO 26004KT 10SM SCT065 SCT080 BKN095 21/19 A2995 RMK AO1 P0016 T02110191
KASL 240635Z AUTO 14008KT 10SM SCT023 SCT036 BKN120 21/20 A2996 RMK AO1 P0016 T02110195
KASL 240615Z AUTO 15008KT 1 1/4SM BKN020 BKN026 OVC037 21/20 A2998 RMK AO1 P0015 T02110195
KASL 240555Z AUTO 12007KT 090V150 1 1/4SM BKN015 BKN021 OVC043 21/20 A3000 RMK AO1 P0098 60098 T02110197 10301 20211 403220211
KASL 240535Z AUTO 14004KT 1SM BKN012 OVC020 21/19 A3003 RMK AO1 P0066 T02110193
KASL 240515Z AUTO 04008G14KT 1 1/2SM BKN017 BKN025 OVC034 22/21 A3004 RMK AO1 P0019 T02240208
KASL 240455Z AUTO 02010G20KT 10SM SCT015 SCT019 BKN025 24/21 A2998 RMK AO1 T02400212
KASL 240435Z AUTO 04007KT 010V070 10SM SCT033 SCT039 26/24 A2997 RMK AO1 T02590239
KASL 240415Z AUTO 00000KT 10SM BKN035 26/24 A2996 RMK AO1 T02600240
KASL 240355Z AUTO 00000KT 10SM SCT039 26/24 A2994 RMK AO1 T02560238
KASL 240335Z AUTO 00000KT 10SM SCT039 26/24 A2994 RMK AO1 T02560240
KASL 240315Z AUTO 00000KT 10SM CLR 26/24 A2993 RMK AO1 T02560240
KASL 240255Z AUTO 00000KT 10SM CLR 26/24 A2993 RMK AO1 T02600240
KASL 240235Z AUTO 00000KT 10SM CLR 26/24 A2991 RMK AO1 T02610242
KASL 240215Z AUTO 00000KT 10SM CLR 27/25 A2990 RMK AO1 T02650245
KASL 240155Z AUTO 00000KT 10SM CLR 28/26 A2989 RMK AO1 T02800256
KASL 240135Z AUTO 00000KT 10SM CLR 29/26 A2988 RMK AO1 T02900263
KASL 240115Z AUTO 15003KT 10SM CLR 30/27 A2988 RMK AO1 T02950267
KASL 240055Z AUTO 00000KT 10SM CLR 30/26 A2987 RMK AO1 T02950264
KASL 240035Z AUTO 00000KT 10SM CLR 30/25 A2987 RMK AO1 T02950253
KASL 240015Z AUTO 00000KT 10SM CLR 30/25 A2986 RMK AO1 T02980251
KASL 232355Z AUTO 00000KT 10SM CLR 30/25 A2986 RMK AO1 T03010250 10322 20295
KASL 232335Z AUTO 00000KT 10SM SCT032 SCT044 30/25 A2986 RMK AO1 T03000251
KASL 232315Z AUTO 00000KT 10SM SCT032 SCT038 SCT047 31/26 A2985 RMK AO1 T03080256
KASL 232255Z AUTO 21004KT 10SM SCT037 BKN049 31/25 A2985 RMK AO1 T03080251
KASL 232235Z AUTO 19003KT 10SM SCT035 SCT041 BKN047 30/25 A2985 RMK AO1 T03010252
KASL 232215Z AUTO 00000KT 10SM SCT033 SCT045 SCT055 30/25 A2985 RMK AO1 T03010247
KASL 232155Z AUTO 19005KT 10SM SCT033 SCT040 SCT049 32/25 A2985 RMK AO1 T03220250
KASL 232135Z AUTO 18004KT 10SM SCT035 SCT042 BKN047 32/25 A2985 RMK AO1 T03220252
KASL 232115Z AUTO 20006KT 10SM SCT035 SCT043 32/24 A2985 RMK AO1 T03220244
KASL 232055Z AUTO 19009KT 10SM SCT029 SCT034 BKN042 32/25 A2985 RMK AO1 T03220249
KASL 232035Z AUTO 19008KT 170V230 10SM SCT029 BKN038 32/25 A2985 RMK AO1 T03220253
KASL 232015Z AUTO 19005KT 10SM SCT031 BKN040 32/25 A2985 RMK AO1 T03220251
KASL 231955Z AUTO 19007KT 10SM SCT031 32/25 A2985 RMK AO1 T03180254
KASL 231935Z AUTO 17006KT 10SM CLR 32/25 A2985 RMK AO1 T03170249
KASL 231915Z AUTO 20007KT 10SM CLR 31/24 A2985 RMK AO1 T03080239
KASL 231855Z AUTO 22005KT 10SM SCT036 31/24 A2986 RMK AO1 T03080240
KASL 231835Z AUTO 23006KT 10SM SCT032 SCT039 31/24 A2986 RMK AO1 T03080235
KASL 231815Z AUTO 21006KT 10SM SCT032 32/24 A2987 RMK AO1 T03150241
KASL 231755Z AUTO 21008KT 10SM SCT028 SCT033 32/25 A2987 RMK AO1 T03220246 10322 20240
KASL 231735Z AUTO 22009KT 10SM SCT028 SCT034 32/24 A2987 RMK AO1 T03180244
KASL 231715Z AUTO 22005KT 10SM CLR 31/24 A2987 RMK AO1 T03050241
KASL 231655Z AUTO 20008KT 10SM SCT025 30/24 A2986 RMK AO1 T02980235
KASL 231635Z AUTO 20007KT 190V250 10SM SCT023 SCT028 30/24 A2986 RMK AO1 T02950237
KASL 231615Z AUTO 20009G14KT 10SM SCT021 30/24 A2986 RMK AO1 T02950241
KASL 231555Z AUTO 20010G14KT 10SM 30/25 A2986 RMK AO1 T02950245
KASL 231535Z AUTO 21008G15KT 10SM 28/24 A2986 RMK AO1 T02810240
KASL 231515Z AUTO 19010G14KT 10SM 28/24 A2985 RMK AO1 T02800241
KASL 231455Z AUTO 20007KT 10SM CLR 28/24 A2985 RMK AO1 T02750242
KASL 231435Z AUTO 21006KT 10SM SCT070 SCT090 SCT110 26/23 A2985 RMK AO1 T02600232
KASL 231415Z AUTO 21006KT 10SM SCT013 SCT070 BKN100 26/23 A2986 RMK AO1 T02560230
KASL 231355Z AUTO 21008KT 10SM SCT013 BKN070 BKN080 25/23 A2985 RMK AO1 T02520230
KASL 231335Z AUTO 21005KT 7SM SCT013 SCT070 25/23 A2984 RMK AO1 T02520231
KASL 231315Z AUTO 21006KT 7SM SCT009 SCT016 BKN060 25/23 A2983 RMK AO1 T02510232
KASL 231255Z AUTO 21004KT 5SM BKN009 BKN014 BKN060 25/23 A2983 RMK AO1 T02460230
KASL 231235Z AUTO 20004KT 5SM SCT010 BKN014 BKN090 25/23 A2981 RMK AO1 T02460230
KASL 231215Z AUTO 21007KT 5SM CLR 24/23 A2980 RMK AO1 T02420226
KASL 231155Z AUTO 22006KT 5SM BKN008 24/23 A2979 RMK AO1 70031 T02400225 10241 20240
KASL 231135Z AUTO 00000KT 5SM BKN008 OVC090 24/23 A2979 RMK AO1 T02400225
KASL 231115Z AUTO 23003KT 7SM SCT008 OVC090 24/23 A2978 RMK AO1 T02400225
KASL 231055Z AUTO 23005KT 7SM OVC090 24/23 A2977 RMK AO1 T02400225
KASL 231035Z AUTO 21004KT 7SM SCT008 SCT070 BKN090 24/23 A2977 RMK AO1 T02400226
KASL 231015Z AUTO 22004KT 5SM SCT010 SCT048 SCT090 24/23 A2977 RMK AO1 T02400226
KASL 230955Z AUTO 21004KT 5SM SCT011 SCT046 BKN090 24/23 A2976 RMK AO1 T02400226
KASL 230935Z AUTO 21004KT 7SM SCT011 SCT040 BKN090 24/23 A2976 RMK AO1 T02400226
KASL 230915Z AUTO 21004KT 7SM SCT013 BKN040 OVC050 24/23 A2976 RMK AO1 T02400226
KASL 230855Z AUTO 20005KT 7SM OVC040 24/23 A2976 RMK AO1 T02400226


Page loaded:  20:54 UTC  |   01:54 PM Pacific  |   02:54 PM Mountain  |   03:54 PM Central  |   04:54 PM Eastern

 

ADVISORIES

FORECASTS

FORECASTS

OBSERVATIONS

USER TOOLS

ABOUT US